sensor_id;sensor_type;location;lat;lon;timestamp;temperature;humidity
17954;DHT22;9102;53.548;9.926;2023-05-07T00:01:04;9.30;99.90
17954;DHT22;9102;53.548;9.926;2023-05-07T00:03:31;9.30;99.90
17954;DHT22;9102;53.548;9.926;2023-05-07T00:05:58;9.30;99.90
17954;DHT22;9102;53.548;9.926;2023-05-07T00:08:25;9.40;99.90
17954;DHT22;9102;53.548;9.926;2023-05-07T00:10:52;9.30;99.90
17954;DHT22;9102;53.548;9.926;2023-05-07T00:13:24;9.40;99.90
17954;DHT22;9102;53.548;9.926;2023-05-07T00:15:52;9.30;99.90
17954;DHT22;9102;53.548;9.926;2023-05-07T00:18:21;9.30;99.90
17954;DHT22;9102;53.548;9.926;2023-05-07T00:20:48;9.30;99.90
17954;DHT22;9102;53.548;9.926;2023-05-07T00:23:14;9.30;99.90
17954;DHT22;9102;53.548;9.926;2023-05-07T00:25:41;9.30;99.90
17954;DHT22;9102;53.548;9.926;2023-05-07T00:28:08;9.30;99.90
17954;DHT22;9102;53.548;9.926;2023-05-07T00:30:35;9.20;99.90
17954;DHT22;9102;53.548;9.926;2023-05-07T00:33:02;9.20;99.90
17954;DHT22;9102;53.548;9.926;2023-05-07T00:35:30;9.20;99.90
17954;DHT22;9102;53.548;9.926;2023-05-07T00:37:57;9.20;99.90
17954;DHT22;9102;53.548;9.926;2023-05-07T00:40:24;9.20;99.90
17954;DHT22;9102;53.548;9.926;2023-05-07T00:42:51;9.20;99.90
17954;DHT22;9102;53.548;9.926;2023-05-07T00:45:23;9.30;99.90
17954;DHT22;9102;53.548;9.926;2023-05-07T00:47:54;9.20;99.90
17954;DHT22;9102;53.548;9.926;2023-05-07T00:50:21;9.20;99.90
17954;DHT22;9102;53.548;9.926;2023-05-07T00:52:50;9.30;99.90
17954;DHT22;9102;53.548;9.926;2023-05-07T00:55:17;9.30;99.90
17954;DHT22;9102;53.548;9.926;2023-05-07T00:57:44;9.30;99.90
17954;DHT22;9102;53.548;9.926;2023-05-07T01:00:12;9.30;99.90
17954;DHT22;9102;53.548;9.926;2023-05-07T01:02:39;9.30;99.90
17954;DHT22;9102;53.548;9.926;2023-05-07T01:05:09;9.30;99.90
17954;DHT22;9102;53.548;9.926;2023-05-07T01:07:37;9.20;99.90
17954;DHT22;9102;53.548;9.926;2023-05-07T01:10:08;9.30;99.90
17954;DHT22;9102;53.548;9.926;2023-05-07T01:12:36;9.30;99.90
17954;DHT22;9102;53.548;9.926;2023-05-07T01:15:05;9.20;99.90
17954;DHT22;9102;53.548;9.926;2023-05-07T01:17:35;9.30;99.90
17954;DHT22;9102;53.548;9.926;2023-05-07T01:20:03;9.20;99.90
17954;DHT22;9102;53.548;9.926;2023-05-07T01:22:34;9.30;99.90
17954;DHT22;9102;53.548;9.926;2023-05-07T01:25:03;9.20;99.90
17954;DHT22;9102;53.548;9.926;2023-05-07T01:27:30;9.20;99.90
17954;DHT22;9102;53.548;9.926;2023-05-07T01:29:58;9.30;99.90
17954;DHT22;9102;53.548;9.926;2023-05-07T01:32:29;9.30;99.90
17954;DHT22;9102;53.548;9.926;2023-05-07T01:35:00;9.30;99.90
17954;DHT22;9102;53.548;9.926;2023-05-07T01:37:28;9.30;99.90
17954;DHT22;9102;53.548;9.926;2023-05-07T01:39:57;9.30;99.90
17954;DHT22;9102;53.548;9.926;2023-05-07T01:42:24;9.40;99.90
17954;DHT22;9102;53.548;9.926;2023-05-07T01:44:52;9.50;99.90
17954;DHT22;9102;53.548;9.926;2023-05-07T01:47:19;9.40;99.90
17954;DHT22;9102;53.548;9.926;2023-05-07T01:49:47;9.40;99.90
17954;DHT22;9102;53.548;9.926;2023-05-07T01:52:14;9.40;99.90
17954;DHT22;9102;53.548;9.926;2023-05-07T01:54:41;9.40;99.90
17954;DHT22;9102;53.548;9.926;2023-05-07T01:57:09;9.30;99.90
17954;DHT22;9102;53.548;9.926;2023-05-07T01:59:36;9.40;99.90
17954;DHT22;9102;53.548;9.926;2023-05-07T02:02:03;9.30;99.90
17954;DHT22;9102;53.548;9.926;2023-05-07T02:04:29;9.30;99.90
17954;DHT22;9102;53.548;9.926;2023-05-07T02:06:57;9.30;99.90
17954;DHT22;9102;53.548;9.926;2023-05-07T02:09:23;9.30;99.90
17954;DHT22;9102;53.548;9.926;2023-05-07T02:11:50;9.30;99.90
17954;DHT22;9102;53.548;9.926;2023-05-07T02:14:18;9.30;99.90
17954;DHT22;9102;53.548;9.926;2023-05-07T02:16:46;9.30;99.90
17954;DHT22;9102;53.548;9.926;2023-05-07T02:19:12;9.30;99.90
17954;DHT22;9102;53.548;9.926;2023-05-07T02:21:39;9.30;99.90
17954;DHT22;9102;53.548;9.926;2023-05-07T02:24:07;9.30;99.90
17954;DHT22;9102;53.548;9.926;2023-05-07T02:26:33;9.30;99.90
17954;DHT22;9102;53.548;9.926;2023-05-07T02:29:00;9.30;99.90
17954;DHT22;9102;53.548;9.926;2023-05-07T02:31:28;9.30;99.90
17954;DHT22;9102;53.548;9.926;2023-05-07T02:33:55;9.20;99.90
17954;DHT22;9102;53.548;9.926;2023-05-07T02:36:22;9.20;99.90
17954;DHT22;9102;53.548;9.926;2023-05-07T02:38:49;9.30;99.90
17954;DHT22;9102;53.548;9.926;2023-05-07T02:41:16;9.30;99.90
17954;DHT22;9102;53.548;9.926;2023-05-07T02:43:43;9.30;99.90
17954;DHT22;9102;53.548;9.926;2023-05-07T02:46:10;9.30;99.90
17954;DHT22;9102;53.548;9.926;2023-05-07T02:48:38;9.30;99.90
17954;DHT22;9102;53.548;9.926;2023-05-07T02:51:05;9.30;99.90
17954;DHT22;9102;53.548;9.926;2023-05-07T02:53:32;9.30;99.90
17954;DHT22;9102;53.548;9.926;2023-05-07T02:56:03;9.30;99.90
17954;DHT22;9102;53.548;9.926;2023-05-07T02:58:31;9.40;99.90
17954;DHT22;9102;53.548;9.926;2023-05-07T03:00:58;9.40;99.90
17954;DHT22;9102;53.548;9.926;2023-05-07T03:03:25;9.30;99.90
17954;DHT22;9102;53.548;9.926;2023-05-07T03:05:54;9.40;99.90
17954;DHT22;9102;53.548;9.926;2023-05-07T03:08:21;9.30;99.90
17954;DHT22;9102;53.548;9.926;2023-05-07T03:10:48;9.30;99.90
17954;DHT22;9102;53.548;9.926;2023-05-07T03:13:15;9.30;99.90
17954;DHT22;9102;53.548;9.926;2023-05-07T03:15:42;9.30;99.90
17954;DHT22;9102;53.548;9.926;2023-05-07T03:18:10;9.30;99.90
17954;DHT22;9102;53.548;9.926;2023-05-07T03:20:37;9.30;99.90
17954;DHT22;9102;53.548;9.926;2023-05-07T03:23:05;9.30;99.90
17954;DHT22;9102;53.548;9.926;2023-05-07T03:25:33;9.30;99.90
17954;DHT22;9102;53.548;9.926;2023-05-07T03:28:00;9.30;99.90
17954;DHT22;9102;53.548;9.926;2023-05-07T03:30:27;9.20;99.90
17954;DHT22;9102;53.548;9.926;2023-05-07T03:32:54;9.20;99.90
17954;DHT22;9102;53.548;9.926;2023-05-07T03:35:21;9.30;99.90
17954;DHT22;9102;53.548;9.926;2023-05-07T03:37:47;9.30;99.90
17954;DHT22;9102;53.548;9.926;2023-05-07T03:40:16;9.20;99.90
17954;DHT22;9102;53.548;9.926;2023-05-07T03:42:43;9.20;99.90
17954;DHT22;9102;53.548;9.926;2023-05-07T03:45:10;9.20;99.90
17954;DHT22;9102;53.548;9.926;2023-05-07T03:47:37;9.10;99.90
17954;DHT22;9102;53.548;9.926;2023-05-07T03:50:05;9.10;99.90
17954;DHT22;9102;53.548;9.926;2023-05-07T03:52:32;9.10;99.90
17954;DHT22;9102;53.548;9.926;2023-05-07T03:54:59;9.20;99.90
17954;DHT22;9102;53.548;9.926;2023-05-07T03:57:27;9.20;99.90
17954;DHT22;9102;53.548;9.926;2023-05-07T03:59:54;9.20;99.90
17954;DHT22;9102;53.548;9.926;2023-05-07T04:02:23;9.20;99.90
17954;DHT22;9102;53.548;9.926;2023-05-07T04:04:50;9.20;99.90
17954;DHT22;9102;53.548;9.926;2023-05-07T04:07:17;9.20;99.90
17954;DHT22;9102;53.548;9.926;2023-05-07T04:09:44;9.20;99.90
17954;DHT22;9102;53.548;9.926;2023-05-07T04:12:11;9.20;99.90
17954;DHT22;9102;53.548;9.926;2023-05-07T04:14:39;9.30;99.90
17954;DHT22;9102;53.548;9.926;2023-05-07T04:17:07;9.30;99.90
17954;DHT22;9102;53.548;9.926;2023-05-07T04:19:38;9.30;99.90
17954;DHT22;9102;53.548;9.926;2023-05-07T04:22:10;9.20;99.90
17954;DHT22;9102;53.548;9.926;2023-05-07T04:24:37;9.20;99.90
17954;DHT22;9102;53.548;9.926;2023-05-07T04:27:04;9.30;99.90
17954;DHT22;9102;53.548;9.926;2023-05-07T04:29:32;9.30;99.90
17954;DHT22;9102;53.548;9.926;2023-05-07T04:32:04;9.30;99.90
17954;DHT22;9102;53.548;9.926;2023-05-07T04:34:32;9.30;99.90
17954;DHT22;9102;53.548;9.926;2023-05-07T04:37:00;9.30;99.90
17954;DHT22;9102;53.548;9.926;2023-05-07T04:39:28;9.30;99.90
17954;DHT22;9102;53.548;9.926;2023-05-07T04:41:55;9.30;99.90
17954;DHT22;9102;53.548;9.926;2023-05-07T04:44:21;9.30;99.90
17954;DHT22;9102;53.548;9.926;2023-05-07T04:46:49;9.40;99.90
17954;DHT22;9102;53.548;9.926;2023-05-07T04:49:18;9.40;99.90
17954;DHT22;9102;53.548;9.926;2023-05-07T04:51:45;9.40;99.90
17954;DHT22;9102;53.548;9.926;2023-05-07T04:54:12;9.40;99.90
17954;DHT22;9102;53.548;9.926;2023-05-07T04:56:38;9.50;99.90
17954;DHT22;9102;53.548;9.926;2023-05-07T04:59:06;9.50;99.90
17954;DHT22;9102;53.548;9.926;2023-05-07T05:01:33;9.40;99.90
17954;DHT22;9102;53.548;9.926;2023-05-07T05:04:02;9.50;99.90
17954;DHT22;9102;53.548;9.926;2023-05-07T05:06:30;9.50;99.90
17954;DHT22;9102;53.548;9.926;2023-05-07T05:08:57;9.50;99.90
17954;DHT22;9102;53.548;9.926;2023-05-07T05:11:24;9.50;99.90
17954;DHT22;9102;53.548;9.926;2023-05-07T05:13:51;9.50;99.90
17954;DHT22;9102;53.548;9.926;2023-05-07T05:16:18;9.50;99.90
17954;DHT22;9102;53.548;9.926;2023-05-07T05:18:46;9.50;99.90
17954;DHT22;9102;53.548;9.926;2023-05-07T05:21:13;9.50;99.90
17954;DHT22;9102;53.548;9.926;2023-05-07T05:23:41;9.60;99.90
17954;DHT22;9102;53.548;9.926;2023-05-07T05:26:08;9.50;99.90
17954;DHT22;9102;53.548;9.926;2023-05-07T05:28:36;9.40;99.90
17954;DHT22;9102;53.548;9.926;2023-05-07T05:31:03;9.50;99.90
17954;DHT22;9102;53.548;9.926;2023-05-07T05:33:29;9.50;99.90
17954;DHT22;9102;53.548;9.926;2023-05-07T05:35:57;9.50;99.90
17954;DHT22;9102;53.548;9.926;2023-05-07T05:38:24;9.60;99.90
17954;DHT22;9102;53.548;9.926;2023-05-07T05:40:52;9.50;99.90
17954;DHT22;9102;53.548;9.926;2023-05-07T05:43:19;9.50;99.90
17954;DHT22;9102;53.548;9.926;2023-05-07T05:45:46;9.50;99.90
17954;DHT22;9102;53.548;9.926;2023-05-07T05:48:13;9.50;99.90
17954;DHT22;9102;53.548;9.926;2023-05-07T05:50:41;9.50;99.90
17954;DHT22;9102;53.548;9.926;2023-05-07T05:53:10;9.50;99.90
17954;DHT22;9102;53.548;9.926;2023-05-07T05:55:37;9.60;99.90
17954;DHT22;9102;53.548;9.926;2023-05-07T05:58:06;9.70;99.90
17954;DHT22;9102;53.548;9.926;2023-05-07T06:00:34;9.60;99.90
17954;DHT22;9102;53.548;9.926;2023-05-07T06:03:02;9.70;99.90
17954;DHT22;9102;53.548;9.926;2023-05-07T06:05:30;9.60;99.90
17954;DHT22;9102;53.548;9.926;2023-05-07T06:07:56;9.70;99.90
17954;DHT22;9102;53.548;9.926;2023-05-07T06:10:23;9.60;99.90
17954;DHT22;9102;53.548;9.926;2023-05-07T06:12:51;9.70;99.90
17954;DHT22;9102;53.548;9.926;2023-05-07T06:15:20;9.70;99.90
17954;DHT22;9102;53.548;9.926;2023-05-07T06:17:47;9.70;99.90
17954;DHT22;9102;53.548;9.926;2023-05-07T06:20:14;9.70;99.90
17954;DHT22;9102;53.548;9.926;2023-05-07T06:22:41;9.70;99.90
17954;DHT22;9102;53.548;9.926;2023-05-07T06:25:08;9.80;99.90
17954;DHT22;9102;53.548;9.926;2023-05-07T06:27:35;9.80;99.90
17954;DHT22;9102;53.548;9.926;2023-05-07T06:30:03;9.80;99.90
17954;DHT22;9102;53.548;9.926;2023-05-07T06:32:31;9.80;99.90
17954;DHT22;9102;53.548;9.926;2023-05-07T06:34:58;9.90;99.90
17954;DHT22;9102;53.548;9.926;2023-05-07T06:37:25;9.80;99.90
17954;DHT22;9102;53.548;9.926;2023-05-07T06:39:52;9.80;99.90
17954;DHT22;9102;53.548;9.926;2023-05-07T06:42:20;9.90;99.90
17954;DHT22;9102;53.548;9.926;2023-05-07T06:44:47;10.00;99.90
17954;DHT22;9102;53.548;9.926;2023-05-07T06:47:14;9.90;99.90
17954;DHT22;9102;53.548;9.926;2023-05-07T06:49:42;10.00;99.90
17954;DHT22;9102;53.548;9.926;2023-05-07T06:52:09;10.00;99.90
17954;DHT22;9102;53.548;9.926;2023-05-07T06:54:35;10.00;99.90
17954;DHT22;9102;53.548;9.926;2023-05-07T06:57:03;10.00;99.90
17954;DHT22;9102;53.548;9.926;2023-05-07T06:59:30;10.00;99.90
17954;DHT22;9102;53.548;9.926;2023-05-07T07:01:57;10.00;99.90
17954;DHT22;9102;53.548;9.926;2023-05-07T07:04:24;10.00;99.90
17954;DHT22;9102;53.548;9.926;2023-05-07T07:06:53;10.00;99.90
17954;DHT22;9102;53.548;9.926;2023-05-07T07:09:22;10.10;99.90
17954;DHT22;9102;53.548;9.926;2023-05-07T07:11:48;10.10;99.90
17954;DHT22;9102;53.548;9.926;2023-05-07T07:14:15;10.10;99.90
17954;DHT22;9102;53.548;9.926;2023-05-07T07:16:42;10.20;99.90
17954;DHT22;9102;53.548;9.926;2023-05-07T07:19:09;10.30;99.90
17954;DHT22;9102;53.548;9.926;2023-05-07T07:21:36;10.30;99.90
17954;DHT22;9102;53.548;9.926;2023-05-07T07:24:04;10.20;99.90
17954;DHT22;9102;53.548;9.926;2023-05-07T07:26:31;10.30;99.90
17954;DHT22;9102;53.548;9.926;2023-05-07T07:28:58;10.20;99.90
17954;DHT22;9102;53.548;9.926;2023-05-07T07:31:25;10.20;99.90
17954;DHT22;9102;53.548;9.926;2023-05-07T07:33:52;10.30;99.90
17954;DHT22;9102;53.548;9.926;2023-05-07T07:36:18;10.40;99.90
17954;DHT22;9102;53.548;9.926;2023-05-07T07:38:45;10.40;99.90
17954;DHT22;9102;53.548;9.926;2023-05-07T07:41:13;10.30;99.90
17954;DHT22;9102;53.548;9.926;2023-05-07T07:43:40;10.30;99.90
17954;DHT22;9102;53.548;9.926;2023-05-07T07:46:07;10.40;99.90
17954;DHT22;9102;53.548;9.926;2023-05-07T07:48:34;10.50;99.90
17954;DHT22;9102;53.548;9.926;2023-05-07T07:51:01;10.50;99.90
17954;DHT22;9102;53.548;9.926;2023-05-07T07:53:27;10.50;99.90
17954;DHT22;9102;53.548;9.926;2023-05-07T07:55:54;10.60;99.90
17954;DHT22;9102;53.548;9.926;2023-05-07T07:58:22;10.60;99.90
17954;DHT22;9102;53.548;9.926;2023-05-07T08:00:50;10.80;99.90
17954;DHT22;9102;53.548;9.926;2023-05-07T08:03:17;10.70;99.90
17954;DHT22;9102;53.548;9.926;2023-05-07T08:05:45;10.80;99.90
17954;DHT22;9102;53.548;9.926;2023-05-07T08:08:11;10.90;99.90
17954;DHT22;9102;53.548;9.926;2023-05-07T08:10:38;11.00;99.90
17954;DHT22;9102;53.548;9.926;2023-05-07T08:13:05;10.90;99.90
17954;DHT22;9102;53.548;9.926;2023-05-07T08:15:33;10.90;99.90
17954;DHT22;9102;53.548;9.926;2023-05-07T08:18:01;10.80;99.90
17954;DHT22;9102;53.548;9.926;2023-05-07T08:20:28;10.90;99.90
17954;DHT22;9102;53.548;9.926;2023-05-07T08:22:55;10.90;99.90
17954;DHT22;9102;53.548;9.926;2023-05-07T08:25:22;10.90;99.90
17954;DHT22;9102;53.548;9.926;2023-05-07T08:27:49;10.90;99.90
17954;DHT22;9102;53.548;9.926;2023-05-07T08:30:16;11.10;99.90
17954;DHT22;9102;53.548;9.926;2023-05-07T08:32:48;10.90;99.90
17954;DHT22;9102;53.548;9.926;2023-05-07T08:35:15;10.90;99.90
17954;DHT22;9102;53.548;9.926;2023-05-07T08:37:44;10.90;99.90
17954;DHT22;9102;53.548;9.926;2023-05-07T08:40:14;10.90;99.90
17954;DHT22;9102;53.548;9.926;2023-05-07T08:42:48;10.90;99.90
17954;DHT22;9102;53.548;9.926;2023-05-07T08:45:22;10.80;99.90
17954;DHT22;9102;53.548;9.926;2023-05-07T08:47:54;10.80;99.90
17954;DHT22;9102;53.548;9.926;2023-05-07T08:50:22;10.90;99.90
17954;DHT22;9102;53.548;9.926;2023-05-07T08:52:56;11.00;99.90
17954;DHT22;9102;53.548;9.926;2023-05-07T08:55:35;11.00;99.90
17954;DHT22;9102;53.548;9.926;2023-05-07T08:58:05;10.90;99.90
17954;DHT22;9102;53.548;9.926;2023-05-07T09:00:32;11.00;99.90
17954;DHT22;9102;53.548;9.926;2023-05-07T09:03:05;11.10;99.90
17954;DHT22;9102;53.548;9.926;2023-05-07T09:05:42;11.10;99.90
17954;DHT22;9102;53.548;9.926;2023-05-07T09:08:13;11.10;99.90
17954;DHT22;9102;53.548;9.926;2023-05-07T09:10:43;11.10;99.90
17954;DHT22;9102;53.548;9.926;2023-05-07T09:13:19;11.20;99.90
17954;DHT22;9102;53.548;9.926;2023-05-07T09:15:48;11.20;99.90
17954;DHT22;9102;53.548;9.926;2023-05-07T09:18:17;11.30;99.90
17954;DHT22;9102;53.548;9.926;2023-05-07T09:20:47;11.50;99.90
17954;DHT22;9102;53.548;9.926;2023-05-07T09:23:24;11.50;99.90
17954;DHT22;9102;53.548;9.926;2023-05-07T09:26:03;11.60;99.90
17954;DHT22;9102;53.548;9.926;2023-05-07T09:28:33;11.60;99.90
17954;DHT22;9102;53.548;9.926;2023-05-07T09:31:00;11.70;99.90
17954;DHT22;9102;53.548;9.926;2023-05-07T09:33:31;11.70;99.90
17954;DHT22;9102;53.548;9.926;2023-05-07T09:36:02;11.70;99.90
17954;DHT22;9102;53.548;9.926;2023-05-07T09:38:36;11.80;99.90
17954;DHT22;9102;53.548;9.926;2023-05-07T09:41:26;11.80;99.90
17954;DHT22;9102;53.548;9.926;2023-05-07T09:44:11;11.90;99.90
17954;DHT22;9102;53.548;9.926;2023-05-07T09:46:54;11.80;99.90
17954;DHT22;9102;53.548;9.926;2023-05-07T09:49:36;12.10;99.90
17954;DHT22;9102;53.548;9.926;2023-05-07T09:52:07;12.20;99.90
17954;DHT22;9102;53.548;9.926;2023-05-07T09:54:36;12.30;99.90
17954;DHT22;9102;53.548;9.926;2023-05-07T09:57:13;12.30;99.90
17954;DHT22;9102;53.548;9.926;2023-05-07T10:00:15;12.10;99.90
17954;DHT22;9102;53.548;9.926;2023-05-07T10:02:59;11.90;99.90
17954;DHT22;9102;53.548;9.926;2023-05-07T10:05:44;12.00;99.90
17954;DHT22;9102;53.548;9.926;2023-05-07T10:08:15;12.10;99.90
17954;DHT22;9102;53.548;9.926;2023-05-07T10:10:45;12.10;99.90
17954;DHT22;9102;53.548;9.926;2023-05-07T10:13:26;12.10;99.90
17954;DHT22;9102;53.548;9.926;2023-05-07T10:16:16;12.20;99.90
17954;DHT22;9102;53.548;9.926;2023-05-07T10:18:43;12.10;99.90
17954;DHT22;9102;53.548;9.926;2023-05-07T10:21:16;12.00;99.90
17954;DHT22;9102;53.548;9.926;2023-05-07T10:24:05;12.10;99.90
17954;DHT22;9102;53.548;9.926;2023-05-07T10:27:00;12.20;99.90
17954;DHT22;9102;53.548;9.926;2023-05-07T10:29:36;12.30;99.90
17954;DHT22;9102;53.548;9.926;2023-05-07T10:32:43;12.50;99.90
17954;DHT22;9102;53.548;9.926;2023-05-07T10:35:21;12.50;99.90
17954;DHT22;9102;53.548;9.926;2023-05-07T10:38:01;12.60;99.90
17954;DHT22;9102;53.548;9.926;2023-05-07T10:40:31;12.80;99.90
17954;DHT22;9102;53.548;9.926;2023-05-07T10:43:00;12.80;99.90
17954;DHT22;9102;53.548;9.926;2023-05-07T10:45:44;12.80;99.90
17954;DHT22;9102;53.548;9.926;2023-05-07T10:49:10;12.90;99.90
17954;DHT22;9102;53.548;9.926;2023-05-07T10:51:43;12.70;99.90
17954;DHT22;9102;53.548;9.926;2023-05-07T10:54:41;12.70;99.90
17954;DHT22;9102;53.548;9.926;2023-05-07T10:57:34;12.60;99.90
17954;DHT22;9102;53.548;9.926;2023-05-07T11:00:43;12.70;99.90
17954;DHT22;9102;53.548;9.926;2023-05-07T11:03:14;12.80;99.90
17954;DHT22;9102;53.548;9.926;2023-05-07T11:09:07;12.70;99.90
17954;DHT22;9102;53.548;9.926;2023-05-07T11:12:11;12.90;99.90
17954;DHT22;9102;53.548;9.926;2023-05-07T11:14:45;13.00;99.90
17954;DHT22;9102;53.548;9.926;2023-05-07T11:17:12;12.90;99.90
17954;DHT22;9102;53.548;9.926;2023-05-07T11:19:49;13.20;99.90
17954;DHT22;9102;53.548;9.926;2023-05-07T11:22:40;13.00;99.90
17954;DHT22;9102;53.548;9.926;2023-05-07T11:25:07;13.20;99.90
17954;DHT22;9102;53.548;9.926;2023-05-07T11:27:38;13.10;99.90
17954;DHT22;9102;53.548;9.926;2023-05-07T11:30:06;13.00;99.90
17954;DHT22;9102;53.548;9.926;2023-05-07T11:32:33;13.20;99.90
17954;DHT22;9102;53.548;9.926;2023-05-07T11:35:01;13.10;99.90
17954;DHT22;9102;53.548;9.926;2023-05-07T11:37:28;13.10;99.90
17954;DHT22;9102;53.548;9.926;2023-05-07T11:40:03;13.30;99.90
17954;DHT22;9102;53.548;9.926;2023-05-07T11:42:38;13.30;99.90
17954;DHT22;9102;53.548;9.926;2023-05-07T11:45:23;13.30;99.90
17954;DHT22;9102;53.548;9.926;2023-05-07T11:47:50;13.50;99.90
17954;DHT22;9102;53.548;9.926;2023-05-07T11:50:17;13.60;99.90
17954;DHT22;9102;53.548;9.926;2023-05-07T11:52:52;13.60;99.90
17954;DHT22;9102;53.548;9.926;2023-05-07T11:55:24;13.70;99.90
17954;DHT22;9102;53.548;9.926;2023-05-07T11:57:53;13.60;99.90
17954;DHT22;9102;53.548;9.926;2023-05-07T12:00:20;13.60;99.90
17954;DHT22;9102;53.548;9.926;2023-05-07T12:02:47;13.60;99.90
17954;DHT22;9102;53.548;9.926;2023-05-07T12:05:14;13.50;99.90
17954;DHT22;9102;53.548;9.926;2023-05-07T12:07:42;13.60;99.90
17954;DHT22;9102;53.548;9.926;2023-05-07T12:10:13;13.60;99.90
17954;DHT22;9102;53.548;9.926;2023-05-07T12:12:40;13.80;99.90
17954;DHT22;9102;53.548;9.926;2023-05-07T12:15:10;13.90;99.90
17954;DHT22;9102;53.548;9.926;2023-05-07T12:17:38;13.90;99.90
17954;DHT22;9102;53.548;9.926;2023-05-07T12:20:07;13.90;99.90
17954;DHT22;9102;53.548;9.926;2023-05-07T12:22:35;14.00;99.90
17954;DHT22;9102;53.548;9.926;2023-05-07T12:25:02;13.60;99.90
17954;DHT22;9102;53.548;9.926;2023-05-07T12:27:29;13.80;99.90
17954;DHT22;9102;53.548;9.926;2023-05-07T12:29:57;13.60;99.90
17954;DHT22;9102;53.548;9.926;2023-05-07T12:32:27;13.50;99.90
17954;DHT22;9102;53.548;9.926;2023-05-07T12:34:53;13.60;99.90
17954;DHT22;9102;53.548;9.926;2023-05-07T12:37:32;13.80;99.90
17954;DHT22;9102;53.548;9.926;2023-05-07T12:40:07;13.90;99.90
17954;DHT22;9102;53.548;9.926;2023-05-07T12:42:39;13.90;99.90
17954;DHT22;9102;53.548;9.926;2023-05-07T12:45:10;14.20;99.90
17954;DHT22;9102;53.548;9.926;2023-05-07T12:47:39;14.20;99.90
17954;DHT22;9102;53.548;9.926;2023-05-07T12:50:07;14.20;99.90
17954;DHT22;9102;53.548;9.926;2023-05-07T12:52:34;14.20;99.90
17954;DHT22;9102;53.548;9.926;2023-05-07T12:55:07;14.10;99.90
17954;DHT22;9102;53.548;9.926;2023-05-07T12:57:38;14.10;99.90
17954;DHT22;9102;53.548;9.926;2023-05-07T13:00:07;14.40;99.90
17954;DHT22;9102;53.548;9.926;2023-05-07T13:02:39;14.60;99.90
17954;DHT22;9102;53.548;9.926;2023-05-07T13:05:07;14.80;99.90
17954;DHT22;9102;53.548;9.926;2023-05-07T13:07:34;14.90;99.90
17954;DHT22;9102;53.548;9.926;2023-05-07T13:10:02;15.00;99.90
17954;DHT22;9102;53.548;9.926;2023-05-07T13:12:29;15.00;99.90
17954;DHT22;9102;53.548;9.926;2023-05-07T13:14:56;14.70;99.90
17954;DHT22;9102;53.548;9.926;2023-05-07T13:17:23;14.70;99.90
17954;DHT22;9102;53.548;9.926;2023-05-07T13:19:52;14.50;99.90
17954;DHT22;9102;53.548;9.926;2023-05-07T13:22:19;14.50;99.90
17954;DHT22;9102;53.548;9.926;2023-05-07T13:24:45;14.60;99.90
17954;DHT22;9102;53.548;9.926;2023-05-07T13:27:12;14.80;99.90
17954;DHT22;9102;53.548;9.926;2023-05-07T13:29:39;14.90;99.90
17954;DHT22;9102;53.548;9.926;2023-05-07T13:32:08;14.70;99.90
17954;DHT22;9102;53.548;9.926;2023-05-07T13:34:50;14.60;99.90
17954;DHT22;9102;53.548;9.926;2023-05-07T13:37:17;14.70;99.90
17954;DHT22;9102;53.548;9.926;2023-05-07T13:39:44;14.70;99.90
17954;DHT22;9102;53.548;9.926;2023-05-07T13:42:14;14.80;99.90
17954;DHT22;9102;53.548;9.926;2023-05-07T13:44:45;14.70;99.90
17954;DHT22;9102;53.548;9.926;2023-05-07T13:47:12;14.70;99.90
17954;DHT22;9102;53.548;9.926;2023-05-07T13:49:39;14.80;99.90
17954;DHT22;9102;53.548;9.926;2023-05-07T13:52:08;14.80;99.90
17954;DHT22;9102;53.548;9.926;2023-05-07T13:54:36;15.00;99.90
17954;DHT22;9102;53.548;9.926;2023-05-07T13:57:03;14.80;99.90
17954;DHT22;9102;53.548;9.926;2023-05-07T13:59:30;14.90;99.90
17954;DHT22;9102;53.548;9.926;2023-05-07T14:01:57;15.00;99.90
17954;DHT22;9102;53.548;9.926;2023-05-07T14:04:24;15.00;99.90
17954;DHT22;9102;53.548;9.926;2023-05-07T14:06:51;15.10;99.90
17954;DHT22;9102;53.548;9.926;2023-05-07T14:09:19;15.30;99.90
17954;DHT22;9102;53.548;9.926;2023-05-07T14:11:46;15.40;99.90
17954;DHT22;9102;53.548;9.926;2023-05-07T14:14:16;15.60;99.90
17954;DHT22;9102;53.548;9.926;2023-05-07T14:16:43;15.70;99.90
17954;DHT22;9102;53.548;9.926;2023-05-07T14:19:10;15.70;99.90
17954;DHT22;9102;53.548;9.926;2023-05-07T14:21:38;15.70;99.90
17954;DHT22;9102;53.548;9.926;2023-05-07T14:24:07;15.90;99.90
17954;DHT22;9102;53.548;9.926;2023-05-07T14:26:36;15.70;99.90
17954;DHT22;9102;53.548;9.926;2023-05-07T14:29:03;15.60;99.90
17954;DHT22;9102;53.548;9.926;2023-05-07T14:31:30;15.60;99.90
17954;DHT22;9102;53.548;9.926;2023-05-07T14:33:58;15.90;99.90
17954;DHT22;9102;53.548;9.926;2023-05-07T14:36:25;16.10;99.90
17954;DHT22;9102;53.548;9.926;2023-05-07T14:38:55;16.10;99.90
17954;DHT22;9102;53.548;9.926;2023-05-07T14:41:24;16.10;99.90
17954;DHT22;9102;53.548;9.926;2023-05-07T14:43:52;16.40;99.90
17954;DHT22;9102;53.548;9.926;2023-05-07T14:46:19;16.60;99.90
17954;DHT22;9102;53.548;9.926;2023-05-07T14:48:46;16.60;99.90
17954;DHT22;9102;53.548;9.926;2023-05-07T14:51:13;16.60;99.90
17954;DHT22;9102;53.548;9.926;2023-05-07T14:53:41;16.70;99.90
17954;DHT22;9102;53.548;9.926;2023-05-07T14:56:08;16.50;99.90
17954;DHT22;9102;53.548;9.926;2023-05-07T14:58:35;16.40;99.90
17954;DHT22;9102;53.548;9.926;2023-05-07T15:01:06;16.40;99.90
17954;DHT22;9102;53.548;9.926;2023-05-07T15:03:32;16.20;99.90
17954;DHT22;9102;53.548;9.926;2023-05-07T15:05:59;16.30;99.90
17954;DHT22;9102;53.548;9.926;2023-05-07T15:08:26;16.30;99.90
17954;DHT22;9102;53.548;9.926;2023-05-07T15:10:53;16.40;99.90
17954;DHT22;9102;53.548;9.926;2023-05-07T15:13:20;16.30;99.90
17954;DHT22;9102;53.548;9.926;2023-05-07T15:15:48;16.00;99.90
17954;DHT22;9102;53.548;9.926;2023-05-07T15:18:20;16.00;99.90
17954;DHT22;9102;53.548;9.926;2023-05-07T15:20:47;16.00;99.90
17954;DHT22;9102;53.548;9.926;2023-05-07T15:23:14;16.00;99.90
17954;DHT22;9102;53.548;9.926;2023-05-07T15:25:41;16.00;99.90
17954;DHT22;9102;53.548;9.926;2023-05-07T15:28:08;16.30;99.90
17954;DHT22;9102;53.548;9.926;2023-05-07T15:30:35;16.20;99.90
17954;DHT22;9102;53.548;9.926;2023-05-07T15:33:02;16.40;99.90
17954;DHT22;9102;53.548;9.926;2023-05-07T15:35:31;16.10;99.90
17954;DHT22;9102;53.548;9.926;2023-05-07T15:37:57;15.90;99.90
17954;DHT22;9102;53.548;9.926;2023-05-07T15:40:24;15.80;99.90
17954;DHT22;9102;53.548;9.926;2023-05-07T15:42:54;15.80;99.90
17954;DHT22;9102;53.548;9.926;2023-05-07T15:45:21;15.80;99.90
17954;DHT22;9102;53.548;9.926;2023-05-07T15:47:48;15.90;99.90
17954;DHT22;9102;53.548;9.926;2023-05-07T15:50:15;15.80;99.90
17954;DHT22;9102;53.548;9.926;2023-05-07T15:52:43;15.90;99.90
17954;DHT22;9102;53.548;9.926;2023-05-07T15:55:11;15.80;99.90
17954;DHT22;9102;53.548;9.926;2023-05-07T15:57:38;15.90;99.90
17954;DHT22;9102;53.548;9.926;2023-05-07T16:00:06;15.70;99.90
17954;DHT22;9102;53.548;9.926;2023-05-07T16:02:36;15.80;99.90
17954;DHT22;9102;53.548;9.926;2023-05-07T16:05:04;15.90;99.90
17954;DHT22;9102;53.548;9.926;2023-05-07T16:07:33;16.00;99.90
17954;DHT22;9102;53.548;9.926;2023-05-07T16:10:02;16.00;99.90